Time;durP1;ratioP1;P1;durP2;ratioP2;P2;SDS_P1;SDS_P2;PMS_P1;PMS_P2;Temp;Humidity;BMP_temperature;BMP_pressure;BME280_temperature;BME280_humidity;BME280_pressure;Samples;Min_cycle;Max_cycle;Signal;HPM_P1;HPM_P2
2023/12/08 00:00:46;;;;;;;14.13;10.18;;;4.80;96.70;;;;;;4906026;29;20079;-61
2023/12/08 00:03:15;;;;;;;15.63;10.77;;;4.80;96.70;;;;;;4927793;29;20138;-61
2023/12/08 00:05:47;;;;;;;19.92;10.55;;;4.80;96.70;;;;;;4932425;29;20040;-61
2023/12/08 00:08:16;;;;;;;15.05;9.90;;;4.80;96.70;;;;;;4914607;29;20810;-60
2023/12/08 00:10:48;;;;;;;22.92;10.13;;;4.90;96.70;;;;;;4923847;29;20509;-61
2023/12/08 00:13:16;;;;;;;17.45;9.88;;;4.80;96.70;;;;;;4906748;29;20143;-61
2023/12/08 00:15:47;;;;;;;23.88;9.32;;;4.70;96.70;;;;;;4922560;29;20510;-61
2023/12/08 00:18:17;;;;;;;14.07;9.15;;;4.80;96.70;;;;;;4905093;29;20059;-61
2023/12/08 00:20:46;;;;;;;17.38;8.50;;;4.80;96.70;;;;;;4929027;29;20051;-61
2023/12/08 00:23:18;;;;;;;14.27;7.80;;;4.80;96.70;;;;;;4934689;29;20043;-61
2023/12/08 00:25:49;;;;;;;20.15;9.30;;;4.80;96.70;;;;;;4928231;29;20055;-61
2023/12/08 00:28:18;;;;;;;24.52;8.50;;;4.80;96.70;;;;;;4930789;29;20043;-61
2023/12/08 00:30:46;;;;;;;32.90;8.82;;;4.80;96.70;;;;;;4926435;29;20068;-61
2023/12/08 00:33:16;;;;;;;25.88;7.95;;;4.70;96.70;;;;;;4923884;29;20039;-61
2023/12/08 00:35:48;;;;;;;21.83;6.75;;;4.70;96.70;;;;;;4903338;29;20048;-61
2023/12/08 00:38:17;;;;;;;13.07;6.45;;;4.70;96.70;;;;;;4933839;29;20126;-61
2023/12/08 00:40:50;;;;;;;24.30;6.95;;;4.70;96.70;;;;;;4908189;29;20099;-61
2023/12/08 00:43:21;;;;;;;11.25;6.57;;;4.70;96.70;;;;;;4923730;29;20751;-60
2023/12/08 00:45:53;;;;;;;11.10;7.32;;;4.70;96.70;;;;;;4927329;29;20044;-61
2023/12/08 00:48:22;;;;;;;13.45;7.03;;;4.80;96.70;;;;;;4865635;29;20063;-61
2023/12/08 00:50:51;;;;;;;14.38;7.22;;;4.80;96.70;;;;;;4926821;29;20055;-61
2023/12/08 00:53:20;;;;;;;13.18;7.07;;;4.80;96.70;;;;;;4917570;29;20119;-61
2023/12/08 00:55:50;;;;;;;12.05;6.97;;;4.80;96.70;;;;;;4913032;29;20061;-61
2023/12/08 00:58:19;;;;;;;11.18;6.93;;;4.80;96.70;;;;;;4925114;29;20087;-61
2023/12/08 01:00:48;;;;;;;18.80;7.53;;;4.70;96.70;;;;;;4912987;29;20119;-61
2023/12/08 01:03:20;;;;;;;15.13;6.68;;;4.60;96.70;;;;;;4932273;29;20479;-60
2023/12/08 01:05:49;;;;;;;11.45;7.35;;;4.70;96.70;;;;;;4923810;29;20043;-61
2023/12/08 01:08:19;;;;;;;31.23;7.90;;;4.80;96.70;;;;;;4913987;29;20049;-61
2023/12/08 01:10:50;;;;;;;14.07;7.68;;;4.80;96.70;;;;;;4925911;29;20076;-61
2023/12/08 01:13:19;;;;;;;18.60;7.32;;;4.60;96.70;;;;;;4933373;29;20411;-61
2023/12/08 01:15:50;;;;;;;14.50;7.57;;;4.60;96.70;;;;;;4925794;29;20144;-61
2023/12/08 01:18:19;;;;;;;12.13;8.27;;;4.70;96.70;;;;;;4898969;29;20515;-62
2023/12/08 01:20:48;;;;;;;19.77;8.27;;;4.70;96.70;;;;;;4921411;29;20059;-61
2023/12/08 01:23:19;;;;;;;23.08;9.27;;;4.80;96.70;;;;;;4901375;29;20040;-61
2023/12/08 01:25:49;;;;;;;12.20;7.97;;;4.80;96.70;;;;;;4905047;29;20056;-61
2023/12/08 01:28:23;;;;;;;11.50;7.75;;;4.80;96.70;;;;;;4913274;29;20059;-61
2023/12/08 01:30:53;;;;;;;10.90;7.72;;;4.90;96.70;;;;;;4927099;29;20079;-61
2023/12/08 01:33:23;;;;;;;12.07;8.02;;;4.90;96.70;;;;;;4910238;29;20043;-61
2023/12/08 01:35:53;;;;;;;14.98;8.50;;;4.90;96.70;;;;;;4915846;29;20139;-61
2023/12/08 01:38:45;;;;;;;12.13;7.68;;;4.90;96.70;;;;;;4931804;29;20067;-62
2023/12/08 01:41:16;;;;;;;10.45;7.25;;;4.80;96.70;;;;;;4909861;29;20071;-61
2023/12/08 01:43:45;;;;;;;11.43;6.93;;;4.80;96.70;;;;;;4924664;29;20048;-61
2023/12/08 01:46:15;;;;;;;11.85;7.25;;;4.80;96.70;;;;;;4920756;29;20047;-61
2023/12/08 01:48:46;;;;;;;10.63;7.25;;;4.80;96.70;;;;;;4917831;29;20047;-61
2023/12/08 01:51:17;;;;;;;9.45;6.60;;;4.90;96.70;;;;;;4905885;29;20100;-61
2023/12/08 01:53:46;;;;;;;10.57;7.43;;;4.90;96.70;;;;;;4932601;29;20514;-61
2023/12/08 01:56:17;;;;;;;10.43;7.05;;;4.80;96.70;;;;;;4928560;29;20048;-61
2023/12/08 01:58:48;;;;;;;14.43;8.60;;;4.80;96.70;;;;;;4913433;29;20051;-61
2023/12/08 02:01:18;;;;;;;11.95;8.10;;;4.70;96.70;;;;;;4932740;29;20067;-62
2023/12/08 02:03:51;;;;;;;10.75;7.65;;;4.70;96.70;;;;;;4927458;29;20047;-62
2023/12/08 02:06:21;;;;;;;13.68;8.38;;;4.80;96.70;;;;;;4909080;29;20474;-61
2023/12/08 02:08:52;;;;;;;12.57;8.63;;;4.80;96.70;;;;;;4916487;29;20086;-61
2023/12/08 02:11:25;;;;;;;12.70;7.60;;;4.70;96.70;;;;;;4910301;29;20044;-62
2023/12/08 02:13:55;;;;;;;12.48;7.68;;;4.70;96.70;;;;;;4933504;29;20123;-61
2023/12/08 02:16:31;;;;;;;10.43;7.00;;;4.70;96.70;;;;;;4908705;29;20455;-61
2023/12/08 02:19:00;;;;;;;11.88;7.50;;;4.70;96.70;;;;;;4905687;29;20107;-61
2023/12/08 02:21:29;;;;;;;10.00;6.95;;;4.80;96.70;;;;;;4927810;29;20458;-62
2023/12/08 02:24:00;;;;;;;8.30;6.03;;;4.70;96.70;;;;;;4932435;29;20063;-62
2023/12/08 02:26:31;;;;;;;7.93;5.70;;;4.70;96.70;;;;;;4919047;29;20075;-61
2023/12/08 02:29:02;;;;;;;8.27;5.90;;;4.70;96.70;;;;;;4900779;29;20415;-61
2023/12/08 02:31:39;;;;;;;7.88;5.32;;;4.70;96.70;;;;;;4905444;29;20105;-62
2023/12/08 02:34:10;;;;;;;6.88;5.07;;;4.60;96.70;;;;;;4914700;29;20072;-61
2023/12/08 02:36:39;;;;;;;6.82;4.63;;;4.60;96.70;;;;;;4923247;29;20054;-61
2023/12/08 02:39:10;;;;;;;6.47;4.60;;;4.60;96.70;;;;;;4922981;29;20410;-61
2023/12/08 02:41:42;;;;;;;6.90;5.15;;;4.60;96.70;;;;;;4929147;29;20074;-61
2023/12/08 02:44:11;;;;;;;7.07;4.95;;;4.60;96.70;;;;;;4911191;29;20107;-61
2023/12/08 02:46:42;;;;;;;6.20;4.55;;;4.60;96.70;;;;;;4902101;29;20052;-61
2023/12/08 02:49:10;;;;;;;7.70;5.03;;;4.50;96.70;;;;;;4914295;29;20054;-61
2023/12/08 02:51:38;;;;;;;7.07;4.90;;;4.50;96.70;;;;;;4915999;29;20048;-61
2023/12/08 02:54:09;;;;;;;7.45;5.00;;;4.60;96.70;;;;;;4932341;29;20047;-61
2023/12/08 02:56:37;;;;;;;6.75;5.00;;;4.50;96.70;;;;;;4919347;29;20052;-61
2023/12/08 02:59:06;;;;;;;7.32;5.35;;;4.50;96.70;;;;;;4932988;29;20058;-61
2023/12/08 03:01:36;;;;;;;6.30;4.97;;;4.60;96.70;;;;;;4909416;29;20063;-61
2023/12/08 03:04:09;;;;;;;6.25;4.55;;;4.50;96.70;;;;;;4931390;29;20055;-61
2023/12/08 03:06:38;;;;;;;8.25;4.28;;;4.50;96.70;;;;;;4924474;29;20051;-62
2023/12/08 03:09:10;;;;;;;6.57;4.45;;;4.40;96.70;;;;;;4918641;29;20063;-61
2023/12/08 03:11:39;;;;;;;5.18;4.15;;;4.50;96.70;;;;;;4930419;29;20051;-62
2023/12/08 03:14:08;;;;;;;6.57;4.43;;;4.40;96.70;;;;;;4919876;29;20415;-62
2023/12/08 03:16:38;;;;;;;7.25;5.10;;;4.40;96.70;;;;;;4911756;29;20140;-61
2023/12/08 03:19:08;;;;;;;7.22;5.18;;;4.40;96.70;;;;;;4936381;29;20130;-61
2023/12/08 03:21:37;;;;;;;7.03;4.47;;;4.40;96.70;;;;;;4930936;29;20044;-61
2023/12/08 03:24:06;;;;;;;8.18;5.35;;;4.40;96.70;;;;;;4933565;29;20052;-61
2023/12/08 03:26:36;;;;;;;8.25;5.00;;;4.40;96.70;;;;;;4922841;29;20044;-61
2023/12/08 03:29:04;;;;;;;8.68;5.80;;;4.50;96.70;;;;;;4931245;29;20044;-61
2023/12/08 03:31:37;;;;;;;7.93;5.22;;;4.50;96.70;;;;;;4906902;29;20135;-63
2023/12/08 03:34:07;;;;;;;6.88;4.97;;;4.50;96.70;;;;;;4906947;29;20052;-62
2023/12/08 03:36:36;;;;;;;7.55;5.30;;;4.50;96.70;;;;;;4922899;29;20075;-62
2023/12/08 03:39:04;;;;;;;6.75;4.63;;;4.50;96.70;;;;;;4904391;29;20052;-61
2023/12/08 03:41:33;;;;;;;5.57;4.25;;;4.40;96.70;;;;;;4906811;29;20047;-62
2023/12/08 03:44:04;;;;;;;6.32;4.47;;;4.50;96.70;;;;;;4904347;29;20530;-61
2023/12/08 03:46:34;;;;;;;7.25;4.60;;;4.40;96.70;;;;;;4887597;29;20064;-61
2023/12/08 03:49:02;;;;;;;7.47;4.65;;;4.40;96.70;;;;;;4864923;29;20147;-62
2023/12/08 03:51:31;;;;;;;7.70;5.13;;;4.40;96.70;;;;;;5545389;23;20570;-58
2023/12/08 03:54:00;;;;;;;7.55;5.75;;;4.50;96.70;;;;;;4912062;29;20048;-58
2023/12/08 03:56:31;;;;;;;7.10;5.05;;;4.40;96.70;;;;;;4915702;29;20058;-58
2023/12/08 03:59:00;;;;;;;9.57;6.32;;;4.40;96.70;;;;;;4891279;29;20048;-58
2023/12/08 04:01:30;;;;;;;8.15;5.55;;;4.50;96.70;;;;;;4907651;29;20036;-58
2023/12/08 04:03:59;;;;;;;7.25;5.25;;;4.50;96.70;;;;;;4913650;29;20064;-58
2023/12/08 04:06:28;;;;;;;7.88;5.60;;;4.60;96.70;;;;;;4899829;29;20048;-58
2023/12/08 04:08:59;;;;;;;8.98;6.10;;;4.60;96.70;;;;;;4894746;29;20083;-58
2023/12/08 04:11:27;;;;;;;10.05;6.18;;;4.60;96.70;;;;;;4900993;29;20080;-58
2023/12/08 04:13:55;;;;;;;7.53;5.35;;;4.50;96.70;;;;;;4910485;29;20067;-58
2023/12/08 04:16:24;;;;;;;9.23;5.80;;;4.60;96.70;;;;;;4912016;29;20540;-58
2023/12/08 04:18:57;;;;;;;7.85;5.40;;;4.60;96.70;;;;;;4905788;29;20131;-58
2023/12/08 04:21:25;;;;;;;8.75;5.78;;;4.60;96.70;;;;;;4874269;29;20083;-58
2023/12/08 04:23:55;;;;;;;9.75;5.88;;;4.60;96.70;;;;;;4905034;29;20040;-58
2023/12/08 04:26:25;;;;;;;8.82;6.20;;;4.60;96.70;;;;;;4913423;29;20104;-58
2023/12/08 04:28:56;;;;;;;10.23;6.40;;;4.70;96.70;;;;;;4910242;29;20099;-58
2023/12/08 04:31:25;;;;;;;9.73;6.22;;;4.70;96.70;;;;;;4911660;29;20049;-58
2023/12/08 04:33:58;;;;;;;10.23;5.93;;;4.70;96.70;;;;;;4896981;29;20050;-58
2023/12/08 04:36:26;;;;;;;9.70;6.45;;;4.70;96.70;;;;;;4899252;29;20075;-58
2023/12/08 04:38:57;;;;;;;10.77;6.07;;;4.70;96.70;;;;;;4905499;29;20499;-58
2023/12/08 04:41:26;;;;;;;10.00;6.53;;;4.70;96.70;;;;;;4912210;29;20406;-58
2023/12/08 04:43:55;;;;;;;8.73;5.57;;;4.70;96.70;;;;;;4905691;29;20104;-58
2023/12/08 04:46:25;;;;;;;9.88;6.35;;;4.80;96.70;;;;;;4906792;29;20072;-58
2023/12/08 04:48:57;;;;;;;9.93;5.85;;;4.80;96.70;;;;;;4898014;29;20087;-58
2023/12/08 04:51:27;;;;;;;8.02;5.63;;;4.80;96.70;;;;;;4915499;29;20051;-58
2023/12/08 04:53:58;;;;;;;9.77;5.95;;;4.90;96.70;;;;;;4908221;29;20080;-58
2023/12/08 04:56:27;;;;;;;9.73;6.22;;;4.90;96.70;;;;;;4898309;29;20135;-58
2023/12/08 04:58:56;;;;;;;8.63;5.85;;;4.90;96.70;;;;;;4910496;29;20062;-58
2023/12/08 05:01:24;;;;;;;11.70;6.57;;;4.90;96.70;;;;;;4897182;29;20091;-58
2023/12/08 05:03:54;;;;;;;8.45;5.70;;;4.90;96.70;;;;;;4917122;29;20047;-58
2023/12/08 05:06:27;;;;;;;9.38;6.05;;;4.90;96.70;;;;;;4904913;29;20063;-58
2023/12/08 05:08:56;;;;;;;8.15;5.55;;;4.80;96.70;;;;;;4890673;29;20115;-58
2023/12/08 05:11:25;;;;;;;8.35;5.78;;;4.90;96.70;;;;;;4909396;29;20044;-58
2023/12/08 05:13:55;;;;;;;9.18;5.57;;;4.90;96.70;;;;;;4912266;29;20471;-58
2023/12/08 05:16:25;;;;;;;9.02;5.60;;;5.00;96.70;;;;;;4875486;29;20079;-57
2023/12/08 05:18:55;;;;;;;8.07;5.45;;;5.00;96.70;;;;;;4889867;29;20049;-57
2023/12/08 05:21:27;;;;;;;7.40;5.18;;;5.00;96.70;;;;;;4914229;29;20047;-57
2023/12/08 05:23:56;;;;;;;7.78;5.20;;;5.00;96.70;;;;;;4889452;29;20072;-58
2023/12/08 05:26:25;;;;;;;7.50;5.13;;;5.00;96.70;;;;;;4895046;29;20076;-57
2023/12/08 05:28:54;;;;;;;7.25;5.22;;;5.10;96.70;;;;;;4908856;29;20448;-58
2023/12/08 05:31:23;;;;;;;8.95;5.68;;;5.00;96.70;;;;;;4878692;29;20567;-57
2023/12/08 05:33:53;;;;;;;8.07;5.50;;;5.00;96.70;;;;;;4902772;29;20500;-58
2023/12/08 05:36:23;;;;;;;10.30;5.72;;;4.90;96.70;;;;;;4927672;29;20126;-58
2023/12/08 05:38:54;;;;;;;9.75;6.47;;;5.00;96.70;;;;;;4889588;29;20508;-58
2023/12/08 05:41:23;;;;;;;8.10;6.00;;;5.00;96.70;;;;;;4895185;29;20055;-58
2023/12/08 05:43:53;;;;;;;8.02;5.55;;;5.00;96.70;;;;;;4885608;29;20048;-58
2023/12/08 05:46:21;;;;;;;9.18;5.55;;;5.00;96.70;;;;;;4884359;29;20059;-58
2023/12/08 05:48:50;;;;;;;8.90;5.55;;;5.00;96.70;;;;;;4884873;29;20084;-58
2023/12/08 05:51:20;;;;;;;8.47;5.60;;;5.00;96.70;;;;;;4806389;29;2052690;-58
2023/12/08 05:53:48;;;;;;;7.20;5.25;;;5.10;96.70;;;;;;4884313;29;20503;-58
2023/12/08 05:56:20;;;;;;;7.85;5.07;;;5.10;96.70;;;;;;4886512;29;20123;-58
2023/12/08 05:58:48;;;;;;;8.20;5.78;;;5.00;96.70;;;;;;4885611;29;20078;-58
2023/12/08 06:01:17;;;;;;;8.48;5.47;;;5.10;96.70;;;;;;4895988;29;20106;-58
2023/12/08 06:03:48;;;;;;;6.93;4.70;;;5.10;96.70;;;;;;4905199;29;20550;-58
2023/12/08 06:06:18;;;;;;;6.82;5.15;;;5.20;96.70;;;;;;4897012;29;20127;-58
2023/12/08 06:08:47;;;;;;;7.68;5.25;;;5.20;96.70;;;;;;4902087;29;20052;-58
2023/12/08 06:11:16;;;;;;;7.70;5.32;;;5.20;96.70;;;;;;4901648;29;20127;-58
2023/12/08 06:13:48;;;;;;;7.47;5.03;;;5.20;96.70;;;;;;4904493;29;20347;-57
2023/12/08 06:16:17;;;;;;;7.45;5.20;;;5.20;96.70;;;;;;4891904;29;20108;-58
2023/12/08 06:18:46;;;;;;;6.90;5.18;;;5.20;96.70;;;;;;4888482;29;20091;-57
2023/12/08 06:21:15;;;;;;;6.60;5.00;;;5.20;96.70;;;;;;4906372;29;20525;-57
2023/12/08 06:23:44;;;;;;;7.60;5.20;;;5.20;96.70;;;;;;4888315;29;20048;-57
2023/12/08 06:26:13;;;;;;;7.82;5.40;;;5.10;96.70;;;;;;4895759;29;20511;-57
2023/12/08 06:28:41;;;;;;;8.38;5.20;;;5.10;96.70;;;;;;4902326;29;20055;-58
2023/12/08 06:31:13;;;;;;;7.05;4.63;;;5.10;96.70;;;;;;4923398;29;20056;-57
2023/12/08 06:33:41;;;;;;;6.93;4.75;;;5.20;96.70;;;;;;4912530;29;20056;-57
2023/12/08 06:36:12;;;;;;;7.88;4.95;;;5.20;96.70;;;;;;4901168;29;20135;-57
2023/12/08 06:38:41;;;;;;;6.88;4.55;;;5.20;96.70;;;;;;4857142;29;20079;-57
2023/12/08 06:41:09;;;;;;;6.85;4.68;;;5.30;96.70;;;;;;4907446;29;20044;-57
2023/12/08 06:43:38;;;;;;;6.97;4.60;;;5.20;96.70;;;;;;4889186;29;20055;-57
2023/12/08 06:46:06;;;;;;;8.73;4.93;;;5.20;96.70;;;;;;4908358;29;20048;-58
2023/12/08 06:48:36;;;;;;;6.32;4.43;;;5.20;96.70;;;;;;4908162;29;20059;-58
2023/12/08 06:51:06;;;;;;;8.10;5.18;;;5.20;96.70;;;;;;4897566;29;20507;-57
2023/12/08 06:53:39;;;;;;;8.38;6.13;;;5.20;96.70;;;;;;4901387;29;20075;-57
2023/12/08 06:56:09;;;;;;;7.63;5.45;;;5.20;96.70;;;;;;4911543;29;20071;-57
2023/12/08 06:58:38;;;;;;;7.45;5.00;;;5.20;96.70;;;;;;4911513;29;20547;-57
2023/12/08 07:01:07;;;;;;;6.20;4.20;;;5.20;96.70;;;;;;4913501;29;20055;-57
2023/12/08 07:03:37;;;;;;;5.13;4.03;;;5.20;96.70;;;;;;4911746;29;20075;-57
2023/12/08 07:06:06;;;;;;;6.05;3.85;;;5.20;96.70;;;;;;4903115;29;20503;-57
2023/12/08 07:08:36;;;;;;;5.45;4.03;;;5.20;96.70;;;;;;4910980;29;20162;-57
2023/12/08 07:11:05;;;;;;;5.72;3.67;;;5.30;96.70;;;;;;4910108;29;20076;-57
2023/12/08 07:13:35;;;;;;;5.53;4.00;;;5.30;96.70;;;;;;4911781;29;20044;-58
2023/12/08 07:16:09;;;;;;;5.03;3.60;;;5.30;96.70;;;;;;4912965;29;20044;-58
2023/12/08 07:18:40;;;;;;;4.80;3.35;;;5.30;96.70;;;;;;4908970;29;20570;-57
2023/12/08 07:21:09;;;;;;;5.53;3.40;;;5.30;96.70;;;;;;4916138;29;20048;-58
2023/12/08 07:23:38;;;;;;;6.38;3.70;;;5.40;96.70;;;;;;4887860;29;20508;-58
2023/12/08 07:26:07;;;;;;;5.18;3.67;;;5.40;96.70;;;;;;4900572;29;20062;-58
2023/12/08 07:28:38;;;;;;;5.20;3.47;;;5.40;96.70;;;;;;4910582;29;20044;-58
2023/12/08 07:31:08;;;;;;;5.72;4.10;;;5.40;96.70;;;;;;4911745;29;20048;-58
2023/12/08 07:33:37;;;;;;;4.90;3.70;;;5.40;96.70;;;;;;4905611;29;20074;-58
2023/12/08 07:36:10;;;;;;;5.53;3.92;;;5.40;96.70;;;;;;4917343;29;20063;-57
2023/12/08 07:38:40;;;;;;;5.53;3.88;;;5.40;96.70;;;;;;4892837;29;20081;-57
2023/12/08 07:41:11;;;;;;;4.05;3.38;;;5.50;96.70;;;;;;4909818;29;20048;-57
2023/12/08 07:43:40;;;;;;;5.82;3.90;;;5.50;96.70;;;;;;4906070;29;20099;-57
2023/12/08 07:46:08;;;;;;;4.97;3.40;;;5.50;96.70;;;;;;4892932;29;20068;-57
2023/12/08 07:48:38;;;;;;;5.40;3.80;;;5.50;96.70;;;;;;4904222;29;20074;-58
2023/12/08 07:51:09;;;;;;;5.07;3.75;;;5.50;96.70;;;;;;4895569;29;20048;-59
2023/12/08 07:53:38;;;;;;;6.55;3.47;;;5.50;96.70;;;;;;4888823;29;20163;-58
2023/12/08 07:56:07;;;;;;;5.15;3.88;;;5.50;96.70;;;;;;4890972;29;20045;-58
2023/12/08 07:58:37;;;;;;;5.25;3.78;;;5.50;96.70;;;;;;4893548;29;20044;-57
2023/12/08 08:01:08;;;;;;;4.60;3.38;;;5.50;96.70;;;;;;4898368;29;20059;-58
2023/12/08 08:03:37;;;;;;;5.82;3.63;;;5.50;96.70;;;;;;4890942;29;20052;-57
2023/12/08 08:06:11;;;;;;;4.53;3.33;;;5.50;96.70;;;;;;4897657;29;20050;-57
2023/12/08 08:08:41;;;;;;;6.15;4.25;;;5.60;96.70;;;;;;4880240;29;20491;-57
2023/12/08 08:11:11;;;;;;;4.85;3.78;;;5.60;96.70;;;;;;4888362;29;20064;-57
2023/12/08 08:13:41;;;;;;;6.55;4.60;;;5.70;96.70;;;;;;4885545;29;20056;-57
2023/12/08 08:16:09;;;;;;;6.38;3.97;;;5.70;96.70;;;;;;4879523;29;20426;-58
2023/12/08 08:18:38;;;;;;;7.95;4.80;;;5.70;96.70;;;;;;4892666;29;20128;-57
2023/12/08 08:21:10;;;;;;;5.95;3.78;;;5.80;96.70;;;;;;4908043;29;20052;-58
2023/12/08 08:23:41;;;;;;;6.22;4.25;;;5.80;96.70;;;;;;4900145;29;20123;-58
2023/12/08 08:26:11;;;;;;;7.05;4.05;;;5.80;96.70;;;;;;4883574;29;20567;-58
2023/12/08 08:28:39;;;;;;;6.43;4.25;;;5.80;96.70;;;;;;4887334;29;20462;-57
2023/12/08 08:31:09;;;;;;;6.70;4.45;;;5.80;96.70;;;;;;4873072;29;20053;-57
2023/12/08 08:33:37;;;;;;;6.47;4.40;;;5.80;96.70;;;;;;4882141;29;20053;-58
2023/12/08 08:36:07;;;;;;;6.45;4.38;;;5.80;96.70;;;;;;4890951;29;20048;-57
2023/12/08 08:38:39;;;;;;;6.82;4.22;;;5.90;96.70;;;;;;4894175;29;20074;-57
2023/12/08 08:41:08;;;;;;;5.03;3.63;;;5.90;96.70;;;;;;4896237;29;20045;-57
2023/12/08 08:43:37;;;;;;;5.68;4.18;;;5.90;96.70;;;;;;4890915;29;20103;-57
2023/12/08 08:46:05;;;;;;;5.70;3.97;;;5.90;96.70;;;;;;4835478;29;20117;-57
2023/12/08 08:48:34;;;;;;;6.43;4.00;;;5.80;96.70;;;;;;4871136;29;20047;-58
2023/12/08 08:51:03;;;;;;;6.05;4.45;;;5.90;96.70;;;;;;4853618;29;20067;-58
2023/12/08 08:53:33;;;;;;;4.93;3.85;;;5.90;96.70;;;;;;4908491;29;20052;-57
2023/12/08 08:56:03;;;;;;;6.45;4.43;;;5.90;96.70;;;;;;4880113;29;20092;-57
2023/12/08 08:58:34;;;;;;;6.63;4.38;;;5.80;96.70;;;;;;4884334;29;20052;-58
2023/12/08 09:01:02;;;;;;;7.38;5.15;;;5.80;96.70;;;;;;4896666;29;20055;-58
2023/12/08 09:03:32;;;;;;;7.90;5.28;;;5.80;96.70;;;;;;4903962;29;20731;-58
2023/12/08 09:06:05;;;;;;;7.28;5.40;;;5.80;96.70;;;;;;4898974;29;20108;-58
2023/12/08 09:08:34;;;;;;;7.70;5.35;;;5.80;96.70;;;;;;4908304;29;20197;-57
2023/12/08 09:11:09;;;;;;;6.70;5.15;;;5.80;96.70;;;;;;4922635;29;20078;-57
2023/12/08 09:13:38;;;;;;;7.80;5.05;;;5.80;96.70;;;;;;4888429;29;20066;-60
2023/12/08 09:16:08;;;;;;;7.13;5.03;;;5.80;96.70;;;;;;4908757;29;20036;-58
2023/12/08 09:18:39;;;;;;;7.60;5.32;;;5.80;96.70;;;;;;4894403;29;20044;-58
2023/12/08 09:21:08;;;;;;;7.43;5.15;;;5.90;96.70;;;;;;4897892;29;20079;-58
2023/12/08 09:23:37;;;;;;;8.05;5.90;;;5.90;96.70;;;;;;4910844;29;20508;-58
2023/12/08 09:26:08;;;;;;;7.47;5.50;;;5.90;96.70;;;;;;4876162;29;20048;-58
2023/12/08 09:28:36;;;;;;;8.23;5.75;;;5.90;96.70;;;;;;4891507;29;20060;-58
2023/12/08 09:31:05;;;;;;;7.18;5.50;;;5.90;96.70;;;;;;4893912;29;20206;-57
2023/12/08 09:33:35;;;;;;;8.55;5.78;;;5.90;96.70;;;;;;4906348;29;20140;-58
2023/12/08 09:36:05;;;;;;;9.20;5.85;;;6.00;96.70;;;;;;4912661;29;20095;-59
2023/12/08 09:38:33;;;;;;;11.23;6.63;;;6.00;96.70;;;;;;4905058;29;20048;-58
2023/12/08 09:41:09;;;;;;;10.13;6.60;;;6.10;96.70;;;;;;4890089;29;20048;-58
2023/12/08 09:43:47;;;;;;;9.30;6.60;;;6.10;96.70;;;;;;4869035;29;20482;-62
2023/12/08 09:46:18;;;;;;;12.35;7.35;;;6.20;96.70;;;;;;4910726;29;20055;-57
2023/12/08 09:48:49;;;;;;;10.77;6.93;;;6.30;96.70;;;;;;4910378;29;20055;-58
2023/12/08 09:51:21;;;;;;;13.23;7.63;;;6.30;96.70;;;;;;4913064;29;20059;-57
2023/12/08 09:53:53;;;;;;;12.07;8.15;;;6.30;96.70;;;;;;4907654;29;20048;-59
2023/12/08 09:56:23;;;;;;;10.55;7.43;;;6.30;96.70;;;;;;4914366;29;20059;-58
2023/12/08 09:58:56;;;;;;;9.88;7.18;;;6.40;96.70;;;;;;4906492;29;20131;-58
2023/12/08 10:01:26;;;;;;;10.68;7.60;;;6.40;96.70;;;;;;4897100;29;20444;-57
2023/12/08 10:03:54;;;;;;;11.98;8.50;;;6.40;96.70;;;;;;4883349;29;20068;-57
2023/12/08 10:06:28;;;;;;;10.00;7.13;;;6.40;96.70;;;;;;4910639;29;20047;-57
2023/12/08 10:08:59;;;;;;;11.07;7.70;;;6.40;96.70;;;;;;4902013;29;20056;-56
2023/12/08 10:11:28;;;;;;;9.57;7.15;;;6.50;96.70;;;;;;4894905;29;20077;-57
2023/12/08 10:14:01;;;;;;;10.80;7.13;;;6.50;96.70;;;;;;4901266;29;20054;-57
2023/12/08 10:16:30;;;;;;;12.93;7.63;;;6.50;96.70;;;;;;4895256;29;20052;-57
2023/12/08 10:19:05;;;;;;;12.80;7.90;;;6.50;96.70;;;;;;4887515;29;20049;-58
2023/12/08 10:21:35;;;;;;;12.18;8.20;;;6.60;96.70;;;;;;4914293;29;20050;-58
2023/12/08 10:24:04;;;;;;;9.95;7.85;;;6.60;96.70;;;;;;4912257;29;20115;-58
2023/12/08 10:26:33;;;;;;;10.32;7.75;;;6.70;96.70;;;;;;4911739;29;20051;-60
2023/12/08 10:29:04;;;;;;;11.25;8.35;;;6.70;96.70;;;;;;4909311;29;20050;-56
2023/12/08 10:31:33;;;;;;;10.13;7.85;;;6.70;96.70;;;;;;4892644;29;20075;-55
2023/12/08 10:34:05;;;;;;;12.18;8.70;;;6.80;96.70;;;;;;4905771;29;20546;-55
2023/12/08 10:36:37;;;;;;;11.23;8.70;;;6.80;96.70;;;;;;4899397;29;20044;-57
2023/12/08 10:39:07;;;;;;;11.57;8.70;;;6.80;96.70;;;;;;4904936;29;20056;-57
2023/12/08 10:41:37;;;;;;;11.20;9.00;;;6.80;96.70;;;;;;4912291;29;20044;-61
2023/12/08 10:44:12;;;;;;;13.32;10.13;;;6.90;96.70;;;;;;4904703;29;20047;-55
2023/12/08 10:46:44;;;;;;;15.13;10.13;;;6.90;96.70;;;;;;4888895;29;20067;-55
2023/12/08 10:49:21;;;;;;;11.13;7.93;;;7.00;96.70;;;;;;4913006;29;20067;-56
2023/12/08 10:51:50;;;;;;;10.52;7.88;;;7.00;96.70;;;;;;4912213;29;20060;-55
2023/12/08 10:54:22;;;;;;;10.23;7.72;;;7.00;96.70;;;;;;4911996;29;20471;-57
2023/12/08 10:56:50;;;;;;;10.02;6.85;;;7.00;96.70;;;;;;4913071;29;20044;-58
2023/12/08 10:59:26;;;;;;;10.60;7.15;;;7.10;96.70;;;;;;4892586;29;20069;-58
2023/12/08 11:01:58;;;;;;;8.77;6.50;;;7.10;96.70;;;;;;4911916;29;20067;-57
2023/12/08 11:04:28;;;;;;;9.02;6.53;;;7.10;96.70;;;;;;4909484;29;20068;-53
2023/12/08 11:07:02;;;;;;;9.85;7.10;;;7.10;96.70;;;;;;4911229;29;20139;-55
2023/12/08 11:09:38;;;;;;;10.65;6.55;;;7.10;96.70;;;;;;4888261;29;20396;-54
2023/12/08 11:12:11;;;;;;;9.38;6.35;;;7.10;96.70;;;;;;4899067;29;20055;-55
2023/12/08 11:14:48;;;;;;;9.18;5.82;;;7.10;96.70;;;;;;4901060;29;20124;-54
2023/12/08 11:17:22;;;;;;;12.20;5.93;;;7.10;96.70;;;;;;4892609;29;20045;-54
2023/12/08 11:19:52;;;;;;;8.43;6.32;;;7.10;96.70;;;;;;4908041;29;20816;-54
2023/12/08 11:22:21;;;;;;;10.40;6.85;;;7.20;96.70;;;;;;4891274;29;20643;-55
2023/12/08 11:24:50;;;;;;;10.48;7.40;;;7.20;96.70;;;;;;4904049;29;20059;-55
2023/12/08 11:27:28;;;;;;;10.73;7.55;;;7.30;96.70;;;;;;4914347;29;20048;-55
2023/12/08 11:30:07;;;;;;;11.45;7.45;;;7.30;96.70;;;;;;4896501;29;20058;-54
2023/12/08 11:32:44;;;;;;;10.02;6.88;;;7.40;96.70;;;;;;4911321;29;20048;-59
2023/12/08 11:35:16;;;;;;;10.45;7.50;;;7.40;96.70;;;;;;4905452;29;20052;-55
2023/12/08 11:37:45;;;;;;;10.68;6.45;;;7.40;96.70;;;;;;4911092;29;20044;-55
2023/12/08 11:40:14;;;;;;;10.50;7.15;;;7.40;96.70;;;;;;4909967;29;20571;-56
2023/12/08 11:42:45;;;;;;;14.02;8.90;;;7.30;96.70;;;;;;4893533;29;20045;-56
2023/12/08 11:45:17;;;;;;;11.77;8.23;;;7.40;96.70;;;;;;4906470;29;20056;-55
2023/12/08 11:47:46;;;;;;;10.32;7.70;;;7.40;96.70;;;;;;4912175;29;20056;-56
2023/12/08 11:50:17;;;;;;;11.20;7.80;;;7.40;96.70;;;;;;4913061;29;20495;-55
2023/12/08 11:52:46;;;;;;;12.43;8.38;;;7.30;96.70;;;;;;4894945;29;20133;-56
2023/12/08 11:55:16;;;;;;;12.38;8.18;;;7.20;96.70;;;;;;4919607;29;20040;-57
2023/12/08 11:58:06;;;;;;;14.05;8.18;;;7.20;96.70;;;;;;4920321;29;20048;-59
2023/12/08 12:00:39;;;;;;;11.35;7.82;;;7.10;96.70;;;;;;4909800;29;20487;-58
2023/12/08 12:03:08;;;;;;;10.55;7.75;;;7.00;96.70;;;;;;4894195;29;20063;-57
2023/12/08 12:05:38;;;;;;;11.93;7.88;;;7.00;96.70;;;;;;4897675;29;20055;-57
2023/12/08 12:08:09;;;;;;;11.52;8.48;;;7.00;96.70;;;;;;4893997;29;20519;-56
2023/12/08 12:10:42;;;;;;;11.00;7.72;;;7.00;96.70;;;;;;4915084;29;20052;-56
2023/12/08 12:13:14;;;;;;;11.68;9.05;;;7.00;96.70;;;;;;4893552;29;20056;-55
2023/12/08 12:15:47;;;;;;;13.55;9.23;;;7.10;96.70;;;;;;4921210;29;20130;-55
2023/12/08 12:18:17;;;;;;;13.30;8.93;;;7.10;96.70;;;;;;4913260;29;20104;-56
2023/12/08 12:20:49;;;;;;;13.55;8.00;;;7.10;96.70;;;;;;4897372;29;20056;-61
2023/12/08 12:23:18;;;;;;;13.88;9.02;;;7.10;96.70;;;;;;4906688;29;20059;-57
2023/12/08 12:25:51;;;;;;;15.20;10.50;;;7.10;96.70;;;;;;4894608;29;20575;-56
2023/12/08 12:28:23;;;;;;;13.90;9.52;;;7.00;96.70;;;;;;4885985;29;20049;-57
2023/12/08 12:30:58;;;;;;;15.63;9.88;;;7.10;96.70;;;;;;4849409;29;20056;-55
2023/12/08 12:33:26;;;;;;;13.32;10.50;;;7.10;96.70;;;;;;4910828;29;20056;-56
2023/12/08 12:35:56;;;;;;;14.52;10.25;;;7.20;96.70;;;;;;4915369;29;20067;-56
2023/12/08 12:38:26;;;;;;;14.80;9.50;;;7.20;96.70;;;;;;4895400;29;20108;-58
2023/12/08 12:40:55;;;;;;;13.57;8.27;;;7.20;96.70;;;;;;4914706;29;20106;-58
2023/12/08 12:43:26;;;;;;;13.20;8.68;;;7.30;96.70;;;;;;4911176;29;20032;-58
2023/12/08 12:46:01;;;;;;;14.65;9.57;;;7.30;96.70;;;;;;4911770;29;20064;-58
2023/12/08 12:48:30;;;;;;;12.95;8.98;;;7.40;96.70;;;;;;4891951;29;20430;-58
2023/12/08 12:50:59;;;;;;;12.13;8.65;;;7.40;96.70;;;;;;4914257;29;20422;-58
2023/12/08 12:53:42;;;;;;;12.50;8.38;;;7.40;96.70;;;;;;4911060;29;20495;-58
2023/12/08 12:56:11;;;;;;;12.02;8.45;;;7.40;96.70;;;;;;4915082;29;20062;-58
2023/12/08 12:58:39;;;;;;;11.20;8.68;;;7.50;96.70;;;;;;4912318;29;20052;-58
2023/12/08 13:01:15;;;;;;;12.05;8.13;;;7.50;96.70;;;;;;4898903;29;20059;-58
2023/12/08 13:03:45;;;;;;;12.32;8.90;;;7.50;96.70;;;;;;4910509;29;20161;-59
2023/12/08 13:06:27;;;;;;;11.20;8.50;;;7.50;96.70;;;;;;4905316;29;20048;-57
2023/12/08 13:08:58;;;;;;;10.52;7.80;;;7.50;96.70;;;;;;4875791;29;20076;-57